createdAt,value
2019-02-10T00:01:26.477Z,99056.00
2019-02-10T00:03:55.858Z,99052.00
2019-02-10T00:06:25.292Z,99055.00
2019-02-10T00:08:54.950Z,99055.00
2019-02-10T00:11:24.037Z,99054.00
2019-02-10T00:13:53.580Z,99058.00
2019-02-10T00:16:22.770Z,99053.00
2019-02-10T00:18:51.920Z,99042.00
2019-02-10T00:21:21.062Z,99041.00
2019-02-10T00:23:50.536Z,99050.00
2019-02-10T00:26:19.699Z,99059.00
2019-02-10T00:28:48.902Z,99049.00
2019-02-10T00:31:18.406Z,99029.00
2019-02-10T00:33:47.777Z,99049.00
2019-02-10T00:36:16.967Z,99042.00
2019-02-10T00:38:46.485Z,99039.00
2019-02-10T00:41:15.898Z,99029.00
2019-02-10T00:43:45.531Z,99033.00
2019-02-10T00:46:15.319Z,99034.00
2019-02-10T00:48:45.200Z,99025.00
2019-02-10T00:51:14.924Z,99028.00
2019-02-10T00:53:44.868Z,99025.00
2019-02-10T00:56:14.336Z,99022.00
2019-02-10T00:58:43.525Z,99027.00
2019-02-10T01:01:13.288Z,99025.00
2019-02-10T01:03:42.414Z,99027.00
2019-02-10T01:06:11.655Z,99034.00
2019-02-10T01:08:41.010Z,99035.00
2019-02-10T01:11:10.452Z,99030.00
2019-02-10T01:13:39.611Z,99034.00
2019-02-10T01:16:08.774Z,99031.00
2019-02-10T01:18:37.915Z,99034.00
2019-02-10T01:21:07.131Z,99034.00
2019-02-10T01:23:36.500Z,99033.00
2019-02-10T01:26:06.044Z,99034.00
2019-02-10T01:28:35.440Z,99029.00
2019-02-10T01:31:04.629Z,99016.00
2019-02-10T01:33:33.995Z,99013.00
2019-02-10T01:36:03.453Z,99000.00
2019-02-10T01:38:32.600Z,98997.00
2019-02-10T01:41:01.755Z,99003.00
2019-02-10T01:43:31.149Z,98999.00
2019-02-10T01:46:00.324Z,98999.00
2019-02-10T01:48:30.022Z,98994.00
2019-02-10T01:50:59.180Z,98996.00
2019-02-10T01:53:28.321Z,98976.00
2019-02-10T01:55:57.741Z,98987.00
2019-02-10T01:58:26.870Z,98978.00
2019-02-10T02:00:56.231Z,98973.00
2019-02-10T02:03:25.709Z,98971.00
2019-02-10T02:05:54.869Z,98968.00
2019-02-10T02:08:24.324Z,98963.00
2019-02-10T02:10:53.487Z,98956.00
2019-02-10T02:13:22.608Z,98949.00
2019-02-10T02:15:51.962Z,98954.00
2019-02-10T02:18:21.110Z,98943.00
2019-02-10T02:20:50.225Z,98943.00
2019-02-10T02:23:19.365Z,98941.00
2019-02-10T02:25:48.748Z,98934.00
2019-02-10T02:28:18.243Z,98928.00
2019-02-10T02:30:47.473Z,98937.00
2019-02-10T02:33:16.606Z,98921.00
2019-02-10T02:35:45.985Z,98911.00
2019-02-10T02:38:15.120Z,98908.00
2019-02-10T02:40:44.279Z,98895.00
2019-02-10T02:43:13.411Z,98903.00
2019-02-10T02:45:42.616Z,98898.00
2019-02-10T02:48:11.762Z,98883.00
2019-02-10T02:50:41.115Z,98886.00
2019-02-10T02:53:10.513Z,98879.00
2019-02-10T02:55:39.750Z,98873.00
2019-02-10T02:58:09.182Z,98873.00
2019-02-10T03:00:38.548Z,98876.00
2019-02-10T03:03:07.979Z,98865.00
2019-02-10T03:05:37.370Z,98864.00
2019-02-10T03:08:06.790Z,98853.00
2019-02-10T03:10:35.911Z,98856.00
2019-02-10T03:13:05.099Z,98854.00
2019-02-10T03:15:34.229Z,98844.00
2019-02-10T03:18:03.924Z,98845.00
2019-02-10T03:20:33.425Z,98840.00
2019-02-10T03:23:02.572Z,98846.00
2019-02-10T03:25:31.732Z,98840.00
2019-02-10T03:28:01.158Z,98842.00
2019-02-10T03:30:30.541Z,98827.00
2019-02-10T03:32:59.912Z,98834.00
2019-02-10T03:35:29.309Z,98828.00
2019-02-10T03:37:58.459Z,98821.00
2019-02-10T03:40:27.813Z,98827.00
2019-02-10T03:42:56.970Z,98825.00
2019-02-10T03:45:26.331Z,98824.00
2019-02-10T03:47:55.486Z,98815.00
2019-02-10T03:50:24.626Z,98810.00
2019-02-10T03:52:53.752Z,98805.00
2019-02-10T03:55:22.862Z,98803.00
2019-02-10T03:57:52.392Z,98806.00
2019-02-10T04:00:21.558Z,98788.00
2019-02-10T04:02:50.678Z,98786.00
2019-02-10T04:05:20.393Z,98773.00
2019-02-10T04:07:49.566Z,98773.00
2019-02-10T04:10:18.928Z,98771.00
2019-02-10T04:12:48.303Z,98758.00
2019-02-10T04:15:17.439Z,98757.00
2019-02-10T04:17:46.820Z,98762.00
2019-02-10T04:20:16.296Z,98763.00
2019-02-10T04:22:45.421Z,98756.00
2019-02-10T04:25:14.678Z,98750.00
2019-02-10T04:27:43.867Z,98749.00
2019-02-10T04:30:13.230Z,98738.00
2019-02-10T04:32:42.600Z,98733.00
2019-02-10T04:35:12.005Z,98719.00
2019-02-10T04:37:45.935Z,98715.00
2019-02-10T04:40:11.937Z,98701.00
2019-02-10T04:42:41.295Z,98699.00
2019-02-10T04:45:10.530Z,98688.00
2019-02-10T04:47:39.684Z,98693.00
2019-02-10T04:50:08.867Z,98680.00
2019-02-10T04:52:38.081Z,98679.00
2019-02-10T04:55:08.166Z,98683.00
2019-02-10T04:57:37.520Z,98684.00
2019-02-10T05:00:09.758Z,98671.00
2019-02-10T05:02:39.424Z,98657.00
2019-02-10T05:05:08.583Z,98652.00
2019-02-10T05:07:37.971Z,98645.00
2019-02-10T05:10:07.599Z,98645.00
2019-02-10T05:12:36.840Z,98639.00
2019-02-10T05:15:07.646Z,98643.00
2019-02-10T05:17:36.737Z,98648.00
2019-02-10T05:20:07.447Z,98636.00
2019-02-10T05:22:36.819Z,98642.00
2019-02-10T05:25:07.148Z,98642.00
2019-02-10T05:27:36.318Z,98635.00
2019-02-10T05:30:06.077Z,98629.00
2019-02-10T05:32:35.232Z,98618.00
2019-02-10T05:35:05.686Z,98596.00
2019-02-10T05:37:35.044Z,98587.00
2019-02-10T05:40:05.269Z,98582.00
2019-02-10T05:42:34.633Z,98568.00
2019-02-10T05:45:04.173Z,98566.00
2019-02-10T05:47:33.313Z,98561.00
2019-02-10T05:50:02.739Z,98553.00
2019-02-10T05:52:31.876Z,98544.00
2019-02-10T05:55:03.741Z,98528.00
2019-02-10T05:57:33.123Z,98525.00
2019-02-10T06:00:02.586Z,98519.00
2019-02-10T06:02:31.732Z,98508.00
2019-02-10T06:05:02.574Z,98507.00
2019-02-10T06:07:31.968Z,98510.00
2019-02-10T06:10:01.319Z,98493.00
2019-02-10T06:12:30.454Z,98498.00
2019-02-10T06:14:59.964Z,98490.00
2019-02-10T06:17:29.333Z,98487.00
2019-02-10T06:19:58.468Z,98481.00
2019-02-10T06:22:27.632Z,98469.00
2019-02-10T06:24:56.757Z,98465.00
2019-02-10T06:27:26.125Z,98450.00
2019-02-10T06:29:55.481Z,98445.00
2019-02-10T06:32:24.666Z,98439.00
2019-02-10T06:34:54.090Z,98438.00
2019-02-10T06:37:23.505Z,98441.00
2019-02-10T06:39:52.621Z,98432.00
2019-02-10T06:42:21.994Z,98425.00
2019-02-10T06:44:51.406Z,98417.00
2019-02-10T06:47:20.534Z,98406.00
2019-02-10T06:49:49.903Z,98405.00
2019-02-10T06:52:19.118Z,98405.00
2019-02-10T06:54:54.613Z,98398.00
2019-02-10T06:57:23.840Z,98396.00
2019-02-10T06:59:57.387Z,98396.00
2019-02-10T07:02:28.153Z,98402.00
2019-02-10T07:04:57.295Z,98390.00
2019-02-10T07:07:26.920Z,98391.00
2019-02-10T07:09:56.036Z,98380.00
2019-02-10T07:12:49.778Z,98385.00
2019-02-10T07:16:13.142Z,98386.00
2019-02-10T07:19:18.426Z,98365.00
2019-02-10T07:21:47.859Z,98363.00
2019-02-10T07:24:47.008Z,98360.00
2019-02-10T07:27:21.957Z,98358.00
2019-02-10T07:30:11.195Z,98368.00
2019-02-10T07:33:00.225Z,98346.00
2019-02-10T07:35:44.107Z,98343.00
2019-02-10T07:38:38.507Z,98337.00
2019-02-10T07:41:39.801Z,98320.00
2019-02-10T07:44:25.789Z,98327.00
2019-02-10T07:47:14.412Z,98313.00
2019-02-10T07:50:18.089Z,98315.00
2019-02-10T07:53:00.716Z,98312.00
2019-02-10T07:55:49.646Z,98298.00
2019-02-10T07:58:33.772Z,98290.00
2019-02-10T08:01:11.788Z,98296.00
2019-02-10T08:04:01.852Z,98288.00
2019-02-10T08:06:50.370Z,98272.00
2019-02-10T08:09:27.397Z,98257.00
2019-02-10T08:11:59.684Z,98262.00
2019-02-10T08:14:37.669Z,98265.00
2019-02-10T08:17:29.584Z,98238.00
2019-02-10T08:20:18.188Z,98233.00
2019-02-10T08:22:59.286Z,98236.00
2019-02-10T08:25:40.378Z,98222.00
2019-02-10T08:28:29.061Z,98232.00
2019-02-10T08:31:31.255Z,98207.00
2019-02-10T08:34:05.352Z,98203.00
2019-02-10T08:36:56.702Z,98189.00
2019-02-10T08:39:37.933Z,98184.00
2019-02-10T08:42:28.384Z,98168.00
2019-02-10T08:45:17.008Z,98158.00
2019-02-10T08:47:52.036Z,98159.00
2019-02-10T08:50:37.891Z,98132.00
2019-02-10T08:53:13.005Z,98134.00
2019-02-10T08:55:42.097Z,98120.00
2019-02-10T08:58:11.476Z,98108.00
2019-02-10T09:00:40.634Z,98110.00
2019-02-10T09:03:19.636Z,98102.00
2019-02-10T09:05:52.005Z,98097.00
2019-02-10T09:08:25.363Z,98095.00
2019-02-10T09:10:55.770Z,98079.00
2019-02-10T09:13:28.763Z,98073.00
2019-02-10T09:16:00.327Z,98059.00
2019-02-10T09:18:32.288Z,98056.00
2019-02-10T09:21:05.164Z,98050.00
2019-02-10T09:23:34.712Z,98028.00
2019-02-10T09:26:08.265Z,98030.00
2019-02-10T09:28:39.460Z,98024.00
2019-02-10T09:31:09.422Z,98022.00
2019-02-10T09:33:41.589Z,98012.00
2019-02-10T09:36:12.044Z,97999.00
2019-02-10T09:38:44.113Z,97995.00
2019-02-10T09:41:14.640Z,97991.00
2019-02-10T09:43:44.628Z,97985.00
2019-02-10T09:46:15.309Z,97974.00
2019-02-10T09:48:45.223Z,97968.00
2019-02-10T09:51:15.636Z,97969.00
2019-02-10T09:53:47.152Z,97968.00
2019-02-10T09:56:17.821Z,97962.00
2019-02-10T09:58:48.362Z,97948.00
2019-02-10T10:01:21.912Z,97937.00
2019-02-10T10:03:52.889Z,97928.00
2019-02-10T10:06:26.198Z,97928.00
2019-02-10T10:08:59.082Z,97931.00
2019-02-10T10:11:29.250Z,97911.00
2019-02-10T10:13:59.628Z,97907.00
2019-02-10T10:16:30.157Z,97904.00
2019-02-10T10:19:00.325Z,97899.00
2019-02-10T10:21:32.185Z,97896.00
2019-02-10T10:24:03.737Z,97892.00
2019-02-10T10:26:33.856Z,97881.00
2019-02-10T10:29:11.964Z,97877.00
2019-02-10T10:32:13.029Z,97870.00
2019-02-10T10:35:03.385Z,97854.00
2019-02-10T10:37:37.685Z,97851.00
2019-02-10T10:40:23.062Z,97837.00
2019-02-10T10:42:53.377Z,97827.00
2019-02-10T10:45:23.950Z,97818.00
2019-02-10T10:47:55.656Z,97794.00
2019-02-10T10:50:26.083Z,97799.00
2019-02-10T10:52:58.253Z,97797.00
2019-02-10T10:55:28.471Z,97786.00
2019-02-10T10:57:58.693Z,97762.00
2019-02-10T11:00:29.451Z,97757.00
2019-02-10T11:03:01.184Z,97760.00
2019-02-10T11:05:31.662Z,97772.00
2019-02-10T11:08:01.867Z,97757.00
2019-02-10T11:10:31.784Z,97750.00
2019-02-10T11:13:02.839Z,97755.00
2019-02-10T11:15:33.727Z,97724.00
2019-02-10T11:18:04.411Z,97726.00
2019-02-10T11:20:37.549Z,97728.00
2019-02-10T11:23:09.308Z,97705.00
2019-02-10T11:25:43.973Z,97717.00
2019-02-10T11:28:13.745Z,97707.00
2019-02-10T11:30:44.223Z,97703.00
2019-02-10T11:33:13.923Z,97710.00
2019-02-10T11:35:44.404Z,97700.00
2019-02-10T11:38:18.829Z,97696.00
2019-02-10T11:40:49.101Z,97691.00
2019-02-10T11:43:19.128Z,97699.00
2019-02-10T11:45:52.107Z,97696.00
2019-02-10T11:48:22.275Z,97684.00
2019-02-10T11:50:52.553Z,97677.00
2019-02-10T11:53:22.718Z,97668.00
2019-02-10T11:55:52.595Z,97666.00
2019-02-10T11:58:22.716Z,97662.00
2019-02-10T12:00:54.100Z,97647.00
2019-02-10T12:03:30.288Z,97648.00
2019-02-10T12:06:06.422Z,97630.00
2019-02-10T12:08:37.535Z,97630.00
2019-02-10T12:11:07.959Z,97633.00
2019-02-10T12:13:40.452Z,97630.00
2019-02-10T12:16:10.638Z,97621.00
2019-02-10T12:18:43.036Z,97613.00
2019-02-10T12:21:14.180Z,97617.00
2019-02-10T12:23:46.165Z,97609.00
2019-02-10T12:26:19.433Z,97603.00
2019-02-10T12:28:49.681Z,97588.00
2019-02-10T12:31:19.852Z,97592.00
2019-02-10T12:33:50.383Z,97582.00
2019-02-10T12:36:22.176Z,97586.00
2019-02-10T12:38:54.049Z,97580.00
2019-02-10T12:41:25.244Z,97574.00
2019-02-10T12:43:56.005Z,97569.00
2019-02-10T12:46:26.301Z,97564.00
2019-02-10T12:48:58.520Z,97564.00
2019-02-10T12:51:30.379Z,97546.00
2019-02-10T12:54:00.551Z,97551.00
2019-02-10T12:56:34.308Z,97533.00
2019-02-10T12:59:07.598Z,97530.00
2019-02-10T13:01:40.025Z,97520.00
2019-02-10T13:04:10.038Z,97524.00
2019-02-10T13:06:41.590Z,97516.00
2019-02-10T13:09:12.786Z,97515.00
2019-02-10T13:11:43.119Z,97498.00
2019-02-10T13:14:15.186Z,97501.00
2019-02-10T13:16:45.141Z,97487.00
2019-02-10T13:19:15.316Z,97479.00
2019-02-10T13:21:45.343Z,97479.00
2019-02-10T13:24:15.661Z,97471.00
2019-02-10T13:26:45.791Z,97468.00
2019-02-10T13:29:16.183Z,97462.00
2019-02-10T13:31:46.747Z,97461.00
2019-02-10T13:34:27.218Z,97459.00
2019-02-10T13:36:50.471Z,97449.00
2019-02-10T13:39:20.874Z,97443.00
2019-02-10T13:41:49.782Z,97435.00
2019-02-10T13:44:24.594Z,97433.00
2019-02-10T13:46:55.081Z,97428.00
2019-02-10T13:49:25.164Z,97435.00
2019-02-10T13:51:55.309Z,97423.00
2019-02-10T13:54:28.591Z,97414.00
2019-02-10T13:57:05.971Z,97408.00
2019-02-10T13:59:39.222Z,97408.00
2019-02-10T14:02:09.698Z,97411.00
2019-02-10T14:04:41.520Z,97391.00
2019-02-10T14:07:17.784Z,97397.00
2019-02-10T14:09:47.736Z,97402.00
2019-02-10T14:12:19.610Z,97397.00
2019-02-10T14:14:49.989Z,97390.00
2019-02-10T14:17:21.238Z,97396.00
2019-02-10T14:19:51.496Z,97384.00
2019-02-10T14:22:21.674Z,97387.00
2019-02-10T14:24:52.263Z,97394.00
2019-02-10T14:27:22.039Z,97385.00
2019-02-10T14:29:51.389Z,97380.00
2019-02-10T14:32:21.524Z,97382.00
2019-02-10T14:34:50.921Z,97372.00
2019-02-10T14:37:20.354Z,97375.00
2019-02-10T14:39:49.603Z,97370.00
2019-02-10T14:42:18.982Z,97376.00
2019-02-10T14:44:48.377Z,97377.00
2019-02-10T14:47:17.542Z,97370.00
2019-02-10T14:49:46.955Z,97366.00
2019-02-10T14:52:17.263Z,97352.00
2019-02-10T14:54:46.805Z,97356.00
2019-02-10T14:57:15.943Z,97360.00
2019-02-10T14:59:45.322Z,97357.00
2019-02-10T15:02:14.748Z,97362.00
2019-02-10T15:04:43.875Z,97351.00
2019-02-10T15:07:13.235Z,97338.00
2019-02-10T15:09:42.513Z,97342.00
2019-02-10T15:12:12.051Z,97342.00
2019-02-10T15:14:41.478Z,97344.00
2019-02-10T15:17:10.667Z,97338.00
2019-02-10T15:19:40.019Z,97329.00
2019-02-10T15:22:09.412Z,97331.00
2019-02-10T15:24:38.569Z,97311.00
2019-02-10T15:27:07.989Z,97316.00
2019-02-10T15:29:37.372Z,97296.00
2019-02-10T15:32:06.558Z,97300.00
2019-02-10T15:34:35.984Z,97295.00
2019-02-10T15:37:05.355Z,97296.00
2019-02-10T15:39:34.899Z,97287.00
2019-02-10T15:42:09.385Z,97270.00
2019-02-10T15:44:35.648Z,97272.00
2019-02-10T15:47:04.891Z,97257.00
2019-02-10T15:49:34.038Z,97246.00
2019-02-10T15:52:03.203Z,97246.00
2019-02-10T15:54:32.585Z,97235.00
2019-02-10T15:57:01.936Z,97232.00
2019-02-10T15:59:31.340Z,97221.00
2019-02-10T16:02:01.047Z,97222.00
2019-02-10T16:04:30.179Z,97216.00
2019-02-10T16:06:59.537Z,97213.00
2019-02-10T16:09:28.934Z,97210.00
2019-02-10T16:11:58.072Z,97216.00
2019-02-10T16:14:27.681Z,97202.00
2019-02-10T16:16:56.887Z,97202.00
2019-02-10T16:19:26.055Z,97188.00
2019-02-10T16:21:55.517Z,97198.00
2019-02-10T16:24:24.632Z,97183.00
2019-02-10T16:26:53.779Z,97191.00
2019-02-10T16:29:23.227Z,97197.00
2019-02-10T16:31:52.581Z,97191.00
2019-02-10T16:34:21.962Z,97203.00
2019-02-10T16:36:51.352Z,97207.00
2019-02-10T16:39:20.945Z,97215.00
2019-02-10T16:41:50.195Z,97220.00
2019-02-10T16:44:19.355Z,97218.00
2019-02-10T16:46:49.547Z,97211.00
2019-02-10T16:49:18.762Z,97202.00
2019-02-10T16:51:48.381Z,97204.00
2019-02-10T16:54:17.533Z,97211.00
2019-02-10T16:56:46.650Z,97192.00
2019-02-10T16:59:16.468Z,97191.00
2019-02-10T17:01:45.835Z,97210.00
2019-02-10T17:04:15.063Z,97202.00
2019-02-10T17:06:44.200Z,97198.00
2019-02-10T17:09:13.581Z,97196.00
2019-02-10T17:11:42.818Z,97190.00
2019-02-10T17:14:12.080Z,97201.00
2019-02-10T17:16:41.232Z,97198.00
2019-02-10T17:19:10.404Z,97190.00
2019-02-10T17:21:39.787Z,97193.00
2019-02-10T17:24:09.598Z,97199.00
2019-02-10T17:26:38.754Z,97196.00
2019-02-10T17:29:09.329Z,97205.00
2019-02-10T17:31:38.472Z,97196.00
2019-02-10T17:34:07.672Z,97206.00
2019-02-10T17:36:36.775Z,97204.00
2019-02-10T17:39:07.966Z,97193.00
2019-02-10T17:41:37.200Z,97205.00
2019-02-10T17:44:06.541Z,97211.00
2019-02-10T17:46:35.652Z,97219.00
2019-02-10T17:49:05.660Z,97221.00
2019-02-10T17:51:34.809Z,97224.00
2019-02-10T17:54:04.074Z,97236.00
2019-02-10T17:56:33.448Z,97247.00
2019-02-10T17:59:02.564Z,97259.00
2019-02-10T18:01:32.184Z,97258.00
2019-02-10T18:04:01.562Z,97261.00
2019-02-10T18:06:30.715Z,97270.00
2019-02-10T18:09:00.091Z,97267.00
2019-02-10T18:11:31.171Z,97280.00
2019-02-10T18:14:00.734Z,97289.00
2019-02-10T18:16:31.662Z,97281.00
2019-02-10T18:19:02.507Z,97289.00
2019-02-10T18:21:37.283Z,97294.00
2019-02-10T18:24:16.944Z,97300.00
2019-02-10T18:26:47.698Z,97303.00
2019-02-10T18:29:27.797Z,97310.00
2019-02-10T18:32:01.400Z,97317.00
2019-02-10T18:34:38.283Z,97299.00
2019-02-10T18:37:15.508Z,97295.00
2019-02-10T18:39:46.356Z,97305.00
2019-02-10T18:42:21.150Z,97298.00
2019-02-10T18:45:04.260Z,97312.00
2019-02-10T18:47:44.608Z,97321.00
2019-02-10T18:50:34.105Z,97299.00
2019-02-10T18:53:19.994Z,97310.00
2019-02-10T18:55:53.222Z,97313.00
2019-02-10T18:58:30.603Z,97330.00
2019-02-10T19:01:17.819Z,97313.00
2019-02-10T19:03:51.309Z,97311.00
2019-02-10T19:06:25.080Z,97312.00
2019-02-10T19:09:04.467Z,97295.00
2019-02-10T19:11:35.226Z,97290.00
2019-02-10T19:14:06.005Z,97292.00
2019-02-10T19:16:45.988Z,97300.00
2019-02-10T19:19:22.379Z,97298.00
2019-02-10T19:22:09.863Z,97308.00
2019-02-10T19:24:46.444Z,97298.00
2019-02-10T19:27:17.479Z,97302.00
2019-02-10T19:29:54.591Z,97309.00
2019-02-10T19:32:28.350Z,97290.00
2019-02-10T19:35:08.393Z,97271.00
2019-02-10T19:37:41.870Z,97301.00
2019-02-10T19:40:21.488Z,97303.00
2019-02-10T19:42:52.482Z,97307.00
2019-02-10T19:45:32.424Z,97304.00
2019-02-10T19:48:17.747Z,97296.00
2019-02-10T19:50:54.386Z,97320.00
2019-02-10T19:53:27.863Z,97319.00
2019-02-10T19:55:58.643Z,97331.00
2019-02-10T19:58:43.983Z,97343.00
2019-02-10T20:01:29.919Z,97352.00
2019-02-10T20:04:03.882Z,97364.00
2019-02-10T20:06:34.922Z,97362.00
2019-02-10T20:09:07.605Z,97362.00
2019-02-10T20:11:44.563Z,97363.00
2019-02-10T20:14:21.727Z,97366.00
2019-02-10T20:16:52.525Z,97371.00
2019-02-10T20:19:23.571Z,97362.00
2019-02-10T20:21:54.572Z,97377.00
2019-02-10T20:24:41.426Z,97384.00
2019-02-10T20:27:28.687Z,97388.00
2019-02-10T20:30:15.577Z,97395.00
2019-02-10T20:32:46.478Z,97407.00
2019-02-10T20:35:32.574Z,97415.00
2019-02-10T20:38:08.988Z,97426.00
2019-02-10T20:40:40.206Z,97432.00
2019-02-10T20:43:11.230Z,97413.00
2019-02-10T20:45:58.175Z,97435.00
2019-02-10T20:48:32.220Z,97421.00
2019-02-10T20:51:17.529Z,97423.00
2019-02-10T20:54:00.164Z,97423.00
2019-02-10T20:56:36.720Z,97438.00
2019-02-10T20:59:07.793Z,97441.00
2019-02-10T21:01:38.830Z,97433.00
2019-02-10T21:04:21.506Z,97438.00
2019-02-10T21:06:52.536Z,97434.00
2019-02-10T21:09:39.802Z,97426.00
2019-02-10T21:12:22.384Z,97450.00
2019-02-10T21:15:04.915Z,97456.00
2019-02-10T21:17:44.603Z,97454.00
2019-02-10T21:20:18.259Z,97482.00
2019-02-10T21:22:55.129Z,97491.00
2019-02-10T21:25:27.247Z,97505.00
2019-02-10T21:28:12.685Z,97502.00
2019-02-10T21:30:59.544Z,97511.00
2019-02-10T21:33:30.342Z,97515.00
2019-02-10T21:36:01.335Z,97523.00
2019-02-10T21:38:38.365Z,97515.00
2019-02-10T21:41:21.487Z,97499.00
2019-02-10T21:43:55.348Z,97498.00
2019-02-10T21:46:35.107Z,97511.00
2019-02-10T21:49:05.243Z,97515.00
2019-02-10T21:51:34.454Z,97502.00
2019-02-10T21:54:03.840Z,97510.00
2019-02-10T21:56:32.985Z,97510.00
2019-02-10T21:59:02.388Z,97502.00
2019-02-10T22:01:31.518Z,97488.00
2019-02-10T22:04:00.902Z,97517.00
2019-02-10T22:06:30.071Z,97501.00
2019-02-10T22:08:59.233Z,97492.00
2019-02-10T22:11:28.591Z,97495.00
2019-02-10T22:13:58.079Z,97509.00
2019-02-10T22:16:27.757Z,97484.00
2019-02-10T22:18:57.218Z,97484.00
2019-02-10T22:21:26.355Z,97478.00
2019-02-10T22:23:55.548Z,97470.00
2019-02-10T22:26:24.955Z,97470.00
2019-02-10T22:28:54.102Z,97464.00
2019-02-10T22:31:23.237Z,97468.00
2019-02-10T22:33:52.393Z,97465.00
2019-02-10T22:36:21.819Z,97473.00
2019-02-10T22:38:51.178Z,97472.00
2019-02-10T22:41:20.314Z,97491.00
2019-02-10T22:43:49.697Z,97481.00
2019-02-10T22:46:18.856Z,97492.00
2019-02-10T22:48:48.002Z,97484.00
2019-02-10T22:51:17.377Z,97490.00
2019-02-10T22:53:46.597Z,97499.00
2019-02-10T22:56:16.237Z,97495.00
2019-02-10T22:58:45.367Z,97485.00
2019-02-10T23:01:14.898Z,97498.00
2019-02-10T23:03:44.057Z,97499.00
2019-02-10T23:06:13.517Z,97509.00
2019-02-10T23:08:42.949Z,97519.00
2019-02-10T23:11:12.413Z,97493.00
2019-02-10T23:13:41.818Z,97511.00
2019-02-10T23:16:11.246Z,97520.00
2019-02-10T23:18:40.405Z,97520.00
2019-02-10T23:21:09.563Z,97529.00
2019-02-10T23:23:38.670Z,97537.00
2019-02-10T23:26:08.073Z,97539.00
2019-02-10T23:28:37.227Z,97533.00
2019-02-10T23:31:06.604Z,97537.00
2019-02-10T23:33:36.040Z,97544.00
2019-02-10T23:36:05.181Z,97539.00
2019-02-10T23:38:34.563Z,97540.00
2019-02-10T23:41:03.840Z,97546.00
2019-02-10T23:43:33.077Z,97554.00
2019-02-10T23:46:02.514Z,97541.00
2019-02-10T23:48:31.715Z,97555.00
2019-02-10T23:51:00.847Z,97564.00
2019-02-10T23:53:29.962Z,97563.00
2019-02-10T23:55:59.521Z,97570.00
2019-02-10T23:58:28.923Z,97562.00
